Terminal Aerodrome Forecast
Issued by NWS

Home | Current Version | Previous Version | Text Only | Print | Product List | Glossary On
Versions: 1 2 3 4 5 6 7 8 9 10 11 12 13
953
FTUS46 KSEW 201307 AAA
TAFOLM
TAF AMD
KOLM 201307Z 2013/2112 20006KT P6SM VCSH OVC025
      TEMPO 2013/2017 2SM -RA OVC014
     FM202000 22008KT P6SM SCT025 BKN040=

USA.gov is the U.S. government's official web portal to all federal, state and local government web resources and services.